AFR1147 LFPG-EPWA
Flight info
| Callsign | AFR1147 |
|---|---|
| Flight time | N/A |
| Altitude | 38000 |
| Route | RANUX DCT VALEK DCT LIPNI UN858 LIMGO DCT BITBU Z140 AGBUL DCT ODVUX DCT 502226N0075959E 503616N0090006E DCT MASEK DCT 510232N0105940E 511418N0120025E 512916N0132128E DCT POZUM DCT 520005N0161918E DCT OBOKU DCT DOSIX DCT BIMPA |
| Aircraft | A319/M-SDE3FGHIRWY/LB1 |
Departure
| Time | 2026-05-04 13:23 |
|---|---|
| Airport | Charles de Gaulle International Airport (LFPG) |
Arrival
| Time | N/A |
|---|---|
| Airport | Warsaw Chopin Airport (EPWA) |
| Time | Latitude | Longitude | Altitude | Speed | Heading |
|---|---|---|---|---|---|
| 2026-05-04 12:48 | 49.00742 | 2.57915 | 335 ft | 0 kts | 184° |
| 2026-05-04 13:10 | 49.00746 | 2.57915 | 335 ft | 2 kts | 184° |
| 2026-05-04 13:10 | 49.00761 | 2.57917 | 335 ft | 2 kts | 184° |
| 2026-05-04 13:10 | 49.00776 | 2.57918 | 335 ft | 1 kts | 193° |
| 2026-05-04 13:10 | 49.00787 | 2.57931 | 336 ft | 2 kts | 245° |
| 2026-05-04 13:11 | 49.00789 | 2.57942 | 336 ft | 1 kts | 272° |
| 2026-05-04 13:11 | 49.00789 | 2.57950 | 336 ft | 0 kts | 266° |
| 2026-05-04 13:15 | 49.00787 | 2.57906 | 336 ft | 7 kts | 265° |
| 2026-05-04 13:16 | 49.00782 | 2.57819 | 336 ft | 9 kts | 265° |
| 2026-05-04 13:16 | 49.00812 | 2.57738 | 336 ft | 10 kts | 342° |
| 2026-05-04 13:16 | 49.00877 | 2.57694 | 337 ft | 12 kts | 303° |
| 2026-05-04 13:16 | 49.00878 | 2.57553 | 337 ft | 14 kts | 265° |
| 2026-05-04 13:17 | 49.00869 | 2.57396 | 337 ft | 15 kts | 265° |
| 2026-05-04 13:17 | 49.00860 | 2.57232 | 337 ft | 16 kts | 266° |
| 2026-05-04 13:17 | 49.00851 | 2.57057 | 337 ft | 17 kts | 266° |
| 2026-05-04 13:17 | 49.00840 | 2.56856 | 337 ft | 20 kts | 266° |
| 2026-05-04 13:18 | 49.00828 | 2.56632 | 337 ft | 21 kts | 266° |
| 2026-05-04 13:18 | 49.00811 | 2.56403 | 339 ft | 22 kts | 262° |
| 2026-05-04 13:18 | 49.00789 | 2.56159 | 339 ft | 24 kts | 262° |
| 2026-05-04 13:18 | 49.00763 | 2.55899 | 339 ft | 25 kts | 262° |
| 2026-05-04 13:19 | 49.00738 | 2.55627 | 340 ft | 25 kts | 264° |
| 2026-05-04 13:19 | 49.00721 | 2.55391 | 340 ft | 18 kts | 261° |
| 2026-05-04 13:19 | 49.00644 | 2.55245 | 340 ft | 19 kts | 181° |
| 2026-05-04 13:19 | 49.00502 | 2.55306 | 337 ft | 23 kts | 163° |
| 2026-05-04 13:20 | 49.00344 | 2.55374 | 337 ft | 24 kts | 165° |
| 2026-05-04 13:20 | 49.00179 | 2.55447 | 333 ft | 25 kts | 164° |
| 2026-05-04 13:20 | 49.00011 | 2.55521 | 333 ft | 24 kts | 164° |
| 2026-05-04 13:20 | 48.99865 | 2.55644 | 331 ft | 23 kts | 121° |
| 2026-05-04 13:21 | 48.99789 | 2.55805 | 330 ft | 17 kts | 163° |
| 2026-05-04 13:21 | 48.99663 | 2.55817 | 330 ft | 17 kts | 175° |
| 2026-05-04 13:21 | 48.99603 | 2.55950 | 329 ft | 18 kts | 81° |
| 2026-05-04 13:21 | 48.99607 | 2.55993 | 329 ft | 0 kts | 85° |
| 2026-05-04 13:22 | 48.99607 | 2.55996 | 329 ft | 5 kts | 85° |
| 2026-05-04 13:22 | 48.99635 | 2.56525 | 327 ft | 92 kts | 85° |
| 2026-05-04 13:23 | 48.99707 | 2.57889 | 354 ft | 158 kts | 86° |
| 2026-05-04 13:23 | 48.99768 | 2.59504 | 1186 ft | 152 kts | 88° |
| 2026-05-04 13:23 | 48.99809 | 2.61088 | 1994 ft | 155 kts | 90° |
| 2026-05-04 13:23 | 48.99813 | 2.62699 | 2815 ft | 155 kts | 89° |
| 2026-05-04 13:24 | 48.99897 | 2.64310 | 3598 ft | 157 kts | 83° |
| 2026-05-04 13:24 | 49.00039 | 2.65994 | 4234 ft | 171 kts | 82° |
| 2026-05-04 13:24 | 49.00184 | 2.67871 | 4823 ft | 190 kts | 83° |
| 2026-05-04 13:25 | 49.00455 | 2.72290 | 6132 ft | 228 kts | 84° |
| 2026-05-04 13:25 | 49.00588 | 2.74760 | 6800 ft | 245 kts | 84° |
| 2026-05-04 13:25 | 49.00729 | 2.77426 | 7462 ft | 264 kts | 84° |
| 2026-05-04 13:25 | 49.00878 | 2.80265 | 8250 ft | 277 kts | 84° |
| 2026-05-04 13:26 | 49.01027 | 2.83187 | 9255 ft | 281 kts | 85° |
| 2026-05-04 13:26 | 49.01175 | 2.86108 | 10238 ft | 285 kts | 84° |
| 2026-05-04 13:26 | 49.01331 | 2.89159 | 10971 ft | 298 kts | 84° |
| 2026-05-04 13:26 | 49.01495 | 2.92370 | 11507 ft | 316 kts | 84° |
| 2026-05-04 13:27 | 49.01744 | 2.95804 | 12000 ft | 334 kts | 81° |
| 2026-05-04 13:27 | 49.01836 | 2.96704 | 12120 ft | 339 kts | 79° |
| 2026-05-04 13:27 | 49.02249 | 3.00301 | 12544 ft | 357 kts | 78° |
| 2026-05-04 13:27 | 49.02704 | 3.04126 | 13094 ft | 370 kts | 78° |
| 2026-05-04 13:28 | 49.03158 | 3.07945 | 13844 ft | 375 kts | 78° |
| 2026-05-04 13:28 | 49.03623 | 3.11868 | 14647 ft | 379 kts | 79° |
| 2026-05-04 13:28 | 49.04088 | 3.15837 | 15336 ft | 382 kts | 79° |
| 2026-05-04 13:28 | 49.04557 | 3.19849 | 15982 ft | 389 kts | 80° |
| 2026-05-04 13:29 | 49.05033 | 3.23944 | 16618 ft | 395 kts | 80° |
| 2026-05-04 13:29 | 49.05506 | 3.28030 | 17269 ft | 398 kts | 80° |
| 2026-05-04 13:29 | 49.05991 | 3.32221 | 17862 ft | 404 kts | 81° |
| 2026-05-04 13:29 | 49.06476 | 3.36409 | 18466 ft | 407 kts | 81° |
| 2026-05-04 13:30 | 49.06965 | 3.40687 | 19037 ft | 411 kts | 81° |
| 2026-05-04 13:30 | 49.07454 | 3.44972 | 19538 ft | 417 kts | 81° |
| 2026-05-04 13:30 | 49.07956 | 3.49382 | 20118 ft | 421 kts | 82° |
| 2026-05-04 13:30 | 49.08445 | 3.53751 | 20659 ft | 425 kts | 83° |
| 2026-05-04 13:31 | 49.08825 | 3.58271 | 21202 ft | 428 kts | 85° |
| 2026-05-04 13:31 | 49.09137 | 3.62769 | 21745 ft | 432 kts | 85° |
| 2026-05-04 13:31 | 49.09446 | 3.67354 | 22262 ft | 435 kts | 86° |
| 2026-05-04 13:31 | 49.09750 | 3.71923 | 22812 ft | 438 kts | 87° |
| 2026-05-04 13:32 | 49.10061 | 3.76581 | 23340 ft | 441 kts | 87° |
| 2026-05-04 13:32 | 49.10371 | 3.81261 | 23816 ft | 445 kts | 87° |
| 2026-05-04 13:32 | 49.10681 | 3.85968 | 24293 ft | 449 kts | 88° |
| 2026-05-04 13:32 | 49.10987 | 3.90682 | 24776 ft | 452 kts | 88° |
| 2026-05-04 13:33 | 49.11299 | 3.95486 | 25224 ft | 456 kts | 88° |
| 2026-05-04 13:33 | 49.11612 | 4.00323 | 25638 ft | 460 kts | 88° |
| 2026-05-04 13:33 | 49.11923 | 4.05174 | 26037 ft | 463 kts | 88° |
| 2026-05-04 13:33 | 49.12234 | 4.10072 | 26459 ft | 466 kts | 88° |
| 2026-05-04 13:34 | 49.12548 | 4.14996 | 26866 ft | 469 kts | 89° |
| 2026-05-04 13:34 | 49.12859 | 4.19912 | 27278 ft | 472 kts | 89° |
| 2026-05-04 13:34 | 49.13174 | 4.24951 | 27657 ft | 475 kts | 89° |
| 2026-05-04 13:34 | 49.13524 | 4.29981 | 28012 ft | 480 kts | 86° |
| 2026-05-04 13:35 | 49.14115 | 4.34986 | 28467 ft | 483 kts | 81° |
| 2026-05-04 13:35 | 49.16142 | 4.44738 | 29534 ft | 486 kts | 72° |
| 2026-05-04 13:35 | 49.17431 | 4.49539 | 30053 ft | 485 kts | 71° |
| 2026-05-04 13:36 | 49.18727 | 4.54252 | 30514 ft | 485 kts | 71° |
| 2026-05-04 13:36 | 49.20023 | 4.58964 | 30971 ft | 484 kts | 71° |
| 2026-05-04 13:36 | 49.21312 | 4.63692 | 31446 ft | 483 kts | 71° |
| 2026-05-04 13:36 | 49.22602 | 4.68446 | 31910 ft | 483 kts | 72° |
| 2026-05-04 13:37 | 49.23880 | 4.73182 | 32397 ft | 481 kts | 72° |
| 2026-05-04 13:37 | 49.25156 | 4.77931 | 32871 ft | 480 kts | 72° |
| 2026-05-04 13:37 | 49.26418 | 4.82642 | 33298 ft | 479 kts | 72° |
| 2026-05-04 13:37 | 49.27673 | 4.87335 | 33723 ft | 479 kts | 72° |
| 2026-05-04 13:38 | 49.28925 | 4.92023 | 34135 ft | 478 kts | 72° |
| 2026-05-04 13:38 | 49.30192 | 4.96781 | 34555 ft | 477 kts | 72° |
| 2026-05-04 13:38 | 49.31436 | 5.01462 | 34932 ft | 476 kts | 72° |
| 2026-05-04 13:38 | 49.32679 | 5.06159 | 35248 ft | 476 kts | 72° |
| 2026-05-04 13:39 | 49.33905 | 5.10802 | 35526 ft | 476 kts | 72° |
| 2026-05-04 13:39 | 49.35149 | 5.15519 | 35806 ft | 476 kts | 71° |
| 2026-05-04 13:39 | 49.36382 | 5.20201 | 36062 ft | 476 kts | 71° |
| 2026-05-04 13:39 | 49.37610 | 5.24866 | 36305 ft | 476 kts | 71° |
| 2026-05-04 13:40 | 49.38858 | 5.29622 | 36545 ft | 476 kts | 71° |
| 2026-05-04 13:40 | 49.40089 | 5.34318 | 36764 ft | 477 kts | 71° |
| 2026-05-04 13:40 | 49.41316 | 5.39012 | 36990 ft | 478 kts | 71° |
| 2026-05-04 13:40 | 49.42563 | 5.43791 | 37208 ft | 479 kts | 70° |
| 2026-05-04 13:41 | 49.43784 | 5.48483 | 37404 ft | 480 kts | 70° |
| 2026-05-04 13:41 | 49.45023 | 5.53250 | 37596 ft | 481 kts | 70° |
| 2026-05-04 13:41 | 49.46276 | 5.58081 | 37787 ft | 482 kts | 70° |
| 2026-05-04 13:42 | 49.48752 | 5.67650 | 37964 ft | 484 kts | 71° |
| 2026-05-04 13:42 | 49.49984 | 5.72429 | 37957 ft | 484 kts | 71° |
| 2026-05-04 13:42 | 49.52431 | 5.82103 | 37974 ft | 484 kts | 72° |
| 2026-05-04 13:43 | 49.54788 | 5.91819 | 37985 ft | 485 kts | 71° |
| 2026-05-04 13:43 | 49.57183 | 6.01509 | 37998 ft | 485 kts | 71° |
| 2026-05-04 13:44 | 49.59576 | 6.11228 | 37980 ft | 485 kts | 71° |
| 2026-05-04 13:44 | 49.62378 | 6.20664 | 37991 ft | 488 kts | 59° |
| 2026-05-04 13:45 | 49.66602 | 6.28820 | 37987 ft | 490 kts | 44° |
| 2026-05-04 13:45 | 49.72023 | 6.35048 | 37976 ft | 489 kts | 28° |
| 2026-05-04 13:46 | 49.78066 | 6.39886 | 37977 ft | 488 kts | 25° |
| 2026-05-04 13:46 | 49.84116 | 6.44634 | 37975 ft | 488 kts | 26° |
| 2026-05-04 13:47 | 49.90136 | 6.49499 | 37976 ft | 489 kts | 27° |
| 2026-05-04 13:47 | 49.95930 | 6.55103 | 37974 ft | 490 kts | 34° |
| 2026-05-04 13:48 | 50.01059 | 6.62046 | 37980 ft | 490 kts | 47° |
| 2026-05-04 13:48 | 50.05174 | 6.70430 | 37987 ft | 488 kts | 61° |
| 2026-05-04 13:49 | 50.07986 | 6.79798 | 37994 ft | 485 kts | 72° |
| 2026-05-04 13:49 | 50.10159 | 6.89578 | 37991 ft | 485 kts | 73° |
| 2026-05-04 13:50 | 50.12331 | 6.99323 | 37940 ft | 485 kts | 73° |
| 2026-05-04 13:50 | 50.13504 | 7.04242 | 37668 ft | 485 kts | 71° |
| 2026-05-04 13:50 | 50.14682 | 7.08967 | 37427 ft | 486 kts | 70° |
| 2026-05-04 13:51 | 50.15924 | 7.13900 | 37185 ft | 487 kts | 70° |
| 2026-05-04 13:51 | 50.17155 | 7.18793 | 37005 ft | 487 kts | 70° |
| 2026-05-04 13:51 | 50.19628 | 7.28693 | 36980 ft | 489 kts | 70° |
| 2026-05-04 13:52 | 50.23311 | 7.43561 | 36972 ft | 489 kts | 70° |
| 2026-05-04 13:53 | 50.25748 | 7.53458 | 36963 ft | 490 kts | 70° |
| 2026-05-04 13:53 | 50.28176 | 7.63370 | 36956 ft | 490 kts | 70° |
| 2026-05-04 13:54 | 50.31764 | 7.78093 | 36943 ft | 490 kts | 71° |
| 2026-05-04 13:55 | 50.35404 | 7.93133 | 36937 ft | 490 kts | 71° |
| 2026-05-04 13:55 | 50.38958 | 8.08118 | 36935 ft | 491 kts | 71° |
| 2026-05-04 13:56 | 50.41307 | 8.18222 | 36935 ft | 491 kts | 71° |
| 2026-05-04 13:57 | 50.44789 | 8.33250 | 36938 ft | 489 kts | 71° |
| 2026-05-04 13:58 | 50.49431 | 8.53417 | 36936 ft | 490 kts | 71° |
| 2026-05-04 13:58 | 50.52877 | 8.68509 | 36924 ft | 490 kts | 72° |
| 2026-05-04 13:59 | 50.55163 | 8.78575 | 36921 ft | 490 kts | 72° |
| 2026-05-04 14:00 | 50.58591 | 8.93773 | 36928 ft | 491 kts | 72° |
| 2026-05-04 14:00 | 50.61955 | 9.08963 | 36930 ft | 491 kts | 72° |
| 2026-05-04 14:01 | 50.64163 | 9.19150 | 36932 ft | 490 kts | 72° |
| 2026-05-04 14:02 | 50.67465 | 9.34435 | 36940 ft | 490 kts | 72° |
| 2026-05-04 14:02 | 50.69656 | 9.44623 | 36939 ft | 490 kts | 72° |
| 2026-05-04 14:03 | 50.71829 | 9.54764 | 36936 ft | 490 kts | 72° |
| 2026-05-04 14:03 | 50.74037 | 9.64950 | 36929 ft | 490 kts | 71° |
| 2026-05-04 14:04 | 50.77402 | 9.79792 | 36927 ft | 490 kts | 71° |
| 2026-05-04 14:04 | 50.79694 | 9.89975 | 36930 ft | 490 kts | 71° |
| 2026-05-04 14:05 | 50.83098 | 10.05230 | 36941 ft | 489 kts | 71° |
| 2026-05-04 14:06 | 50.85350 | 10.15385 | 36941 ft | 490 kts | 71° |
| 2026-05-04 14:06 | 50.87599 | 10.25582 | 36941 ft | 490 kts | 71° |
| 2026-05-04 14:07 | 50.89830 | 10.35747 | 36943 ft | 490 kts | 71° |
| 2026-05-04 14:07 | 50.92070 | 10.45999 | 36932 ft | 490 kts | 71° |
| 2026-05-04 14:08 | 50.94286 | 10.56203 | 36928 ft | 490 kts | 71° |
| 2026-05-04 14:08 | 50.96468 | 10.66296 | 36929 ft | 490 kts | 72° |
| 2026-05-04 14:09 | 50.99774 | 10.81674 | 36932 ft | 491 kts | 71° |
| 2026-05-04 14:10 | 51.03042 | 10.96998 | 36938 ft | 490 kts | 72° |
| 2026-05-04 14:10 | 51.05150 | 11.07285 | 36934 ft | 489 kts | 73° |
| 2026-05-04 14:11 | 51.07204 | 11.17612 | 36929 ft | 489 kts | 73° |
| 2026-05-04 14:11 | 51.10301 | 11.33019 | 36928 ft | 489 kts | 72° |
| 2026-05-04 14:12 | 51.12339 | 11.43344 | 36925 ft | 490 kts | 72° |
| 2026-05-04 14:13 | 51.15370 | 11.58860 | 36920 ft | 490 kts | 72° |
| 2026-05-04 14:13 | 51.17390 | 11.69226 | 36923 ft | 490 kts | 73° |
| 2026-05-04 14:14 | 51.19344 | 11.79299 | 36925 ft | 490 kts | 73° |
| 2026-05-04 14:14 | 51.22314 | 11.94710 | 36915 ft | 491 kts | 73° |
| 2026-05-04 14:15 | 51.26280 | 12.15488 | 36911 ft | 490 kts | 73° |
| 2026-05-04 14:16 | 51.29247 | 12.31129 | 36922 ft | 490 kts | 73° |
| 2026-05-04 14:17 | 51.32188 | 12.46753 | 36930 ft | 490 kts | 73° |
| 2026-05-04 14:18 | 51.35098 | 12.62374 | 36921 ft | 490 kts | 73° |
| 2026-05-04 14:19 | 51.38954 | 12.83276 | 36913 ft | 489 kts | 74° |
| 2026-05-04 14:19 | 51.40877 | 12.93779 | 36911 ft | 490 kts | 74° |
| 2026-05-04 14:20 | 51.42783 | 13.04246 | 36921 ft | 490 kts | 73° |
| 2026-05-04 14:20 | 51.44672 | 13.14676 | 36925 ft | 490 kts | 73° |
| 2026-05-04 14:21 | 51.47506 | 13.30435 | 36923 ft | 489 kts | 73° |
| 2026-05-04 14:21 | 51.49396 | 13.40965 | 36927 ft | 489 kts | 73° |
| 2026-05-04 14:22 | 51.51272 | 13.51373 | 36924 ft | 489 kts | 73° |
| 2026-05-04 14:22 | 51.53153 | 13.61857 | 36920 ft | 489 kts | 73° |
| 2026-05-04 14:23 | 51.55924 | 13.77418 | 36916 ft | 488 kts | 74° |
| 2026-05-04 14:24 | 51.57786 | 13.87953 | 36918 ft | 488 kts | 74° |
| 2026-05-04 14:24 | 51.59643 | 13.98513 | 36923 ft | 488 kts | 74° |
| 2026-05-04 14:25 | 51.61482 | 14.09024 | 36922 ft | 488 kts | 74° |
| 2026-05-04 14:25 | 51.64224 | 14.24795 | 36920 ft | 488 kts | 74° |
| 2026-05-04 14:26 | 51.66031 | 14.35285 | 36920 ft | 488 kts | 74° |
| 2026-05-04 14:26 | 51.67838 | 14.45841 | 36923 ft | 488 kts | 74° |
| 2026-05-04 14:27 | 51.69638 | 14.56414 | 36923 ft | 488 kts | 74° |
| 2026-05-04 14:27 | 51.71409 | 14.66885 | 36922 ft | 488 kts | 75° |
| 2026-05-04 14:28 | 51.73288 | 14.77521 | 36923 ft | 488 kts | 74° |
| 2026-05-04 14:28 | 51.75179 | 14.87969 | 36923 ft | 488 kts | 73° |
| 2026-05-04 14:29 | 51.78943 | 15.09013 | 36911 ft | 488 kts | 73° |
| 2026-05-04 14:30 | 51.80814 | 15.19577 | 36904 ft | 488 kts | 73° |
| 2026-05-04 14:31 | 51.83595 | 15.35400 | 36906 ft | 489 kts | 73° |
| 2026-05-04 14:32 | 51.87273 | 15.56554 | 36898 ft | 489 kts | 73° |
| 2026-05-04 14:32 | 51.89105 | 15.67192 | 36903 ft | 489 kts | 74° |
| 2026-05-04 14:33 | 51.90916 | 15.77775 | 36906 ft | 488 kts | 75° |
| 2026-05-04 14:33 | 51.92713 | 15.88339 | 36905 ft | 490 kts | 74° |
| 2026-05-04 14:34 | 51.94521 | 15.98986 | 36906 ft | 489 kts | 74° |
| 2026-05-04 14:34 | 51.96302 | 16.09557 | 36903 ft | 489 kts | 74° |
| 2026-05-04 14:35 | 51.98081 | 16.20197 | 36901 ft | 489 kts | 74° |
| 2026-05-04 14:35 | 51.99849 | 16.30847 | 36906 ft | 489 kts | 74° |
| 2026-05-04 14:36 | 52.01549 | 16.41481 | 36902 ft | 489 kts | 75° |
| 2026-05-04 14:36 | 52.03216 | 16.52200 | 36894 ft | 489 kts | 75° |
| 2026-05-04 14:37 | 52.04871 | 16.62886 | 36897 ft | 488 kts | 75° |
| 2026-05-04 14:37 | 52.06524 | 16.73602 | 36900 ft | 488 kts | 76° |
| 2026-05-04 14:38 | 52.08158 | 16.84277 | 36891 ft | 488 kts | 75° |
| 2026-05-04 14:38 | 52.09793 | 16.95012 | 36896 ft | 489 kts | 75° |
| 2026-05-04 14:39 | 52.11421 | 17.05754 | 36900 ft | 488 kts | 75° |
| 2026-05-04 14:39 | 52.13033 | 17.16472 | 36898 ft | 488 kts | 75° |
| 2026-05-04 14:40 | 52.15432 | 17.32580 | 36896 ft | 488 kts | 75° |
| 2026-05-04 14:40 | 52.17014 | 17.43291 | 36901 ft | 488 kts | 75° |
| 2026-05-04 14:41 | 52.18585 | 17.54003 | 36901 ft | 487 kts | 75° |
| 2026-05-04 14:42 | 52.21682 | 17.75321 | 36894 ft | 487 kts | 76° |
| 2026-05-04 14:42 | 52.23222 | 17.86054 | 36895 ft | 487 kts | 76° |
| 2026-05-04 14:43 | 52.24753 | 17.96827 | 36895 ft | 487 kts | 77° |
| 2026-05-04 14:43 | 52.25864 | 18.07672 | 36895 ft | 487 kts | 82° |
| 2026-05-04 14:44 | 52.26756 | 18.18695 | 36872 ft | 486 kts | 82° |
| 2026-05-04 14:44 | 52.27193 | 18.24169 | 36612 ft | 479 kts | 82° |
| 2026-05-04 14:44 | 52.27616 | 18.29460 | 36389 ft | 477 kts | 82° |
| 2026-05-04 14:45 | 52.28048 | 18.34845 | 36160 ft | 477 kts | 82° |
| 2026-05-04 14:45 | 52.28476 | 18.40186 | 35846 ft | 479 kts | 82° |
| 2026-05-04 14:45 | 52.28905 | 18.45571 | 35350 ft | 480 kts | 82° |
| 2026-05-04 14:45 | 52.29332 | 18.50970 | 34679 ft | 482 kts | 82° |
| 2026-05-04 14:46 | 52.29759 | 18.56385 | 33857 ft | 484 kts | 82° |
| 2026-05-04 14:46 | 52.30186 | 18.61831 | 33034 ft | 485 kts | 82° |
| 2026-05-04 14:46 | 52.30613 | 18.67298 | 32214 ft | 486 kts | 83° |
| 2026-05-04 14:46 | 52.31037 | 18.72775 | 31393 ft | 485 kts | 83° |
| 2026-05-04 14:47 | 52.31444 | 18.78083 | 30556 ft | 485 kts | 83° |
| 2026-05-04 14:47 | 52.31858 | 18.83494 | 29664 ft | 484 kts | 83° |
| 2026-05-04 14:47 | 52.32276 | 18.88989 | 28727 ft | 484 kts | 83° |
| 2026-05-04 14:47 | 52.32684 | 18.94394 | 27773 ft | 483 kts | 83° |
| 2026-05-04 14:48 | 52.33090 | 18.99806 | 27044 ft | 479 kts | 83° |
| 2026-05-04 14:48 | 52.33488 | 19.05158 | 26478 ft | 476 kts | 83° |
| 2026-05-04 14:48 | 52.33887 | 19.10537 | 25889 ft | 472 kts | 83° |
| 2026-05-04 14:48 | 52.34272 | 19.15766 | 25296 ft | 467 kts | 83° |
| 2026-05-04 14:49 | 52.34654 | 19.20993 | 24687 ft | 463 kts | 84° |
| 2026-05-04 14:49 | 52.34960 | 19.26199 | 24077 ft | 458 kts | 85° |
| 2026-05-04 14:49 | 52.35220 | 19.31370 | 23478 ft | 452 kts | 86° |
| 2026-05-04 14:49 | 52.35464 | 19.36410 | 22896 ft | 448 kts | 86° |
| 2026-05-04 14:50 | 52.35709 | 19.41478 | 22293 ft | 443 kts | 86° |
| 2026-05-04 14:50 | 52.35951 | 19.46484 | 21680 ft | 439 kts | 86° |
| 2026-05-04 14:50 | 52.36186 | 19.51394 | 21079 ft | 434 kts | 86° |
| 2026-05-04 14:50 | 52.36419 | 19.56258 | 20471 ft | 430 kts | 86° |
| 2026-05-04 14:51 | 52.36650 | 19.61116 | 19875 ft | 425 kts | 86° |
| 2026-05-04 14:51 | 52.36875 | 19.65876 | 19551 ft | 417 kts | 86° |
| 2026-05-04 14:51 | 52.37098 | 19.70606 | 19260 ft | 415 kts | 86° |
| 2026-05-04 14:51 | 52.37390 | 19.75307 | 18915 ft | 404 kts | 81° |
| 2026-05-04 14:52 | 52.38006 | 19.79699 | 18751 ft | 391 kts | 73° |
| 2026-05-04 14:52 | 52.38923 | 19.83879 | 18777 ft | 391 kts | 68° |
| 2026-05-04 14:52 | 52.39946 | 19.88017 | 18807 ft | 392 kts | 67° |
| 2026-05-04 14:52 | 52.40974 | 19.92112 | 18834 ft | 392 kts | 67° |
| 2026-05-04 14:53 | 52.42009 | 19.96264 | 18858 ft | 392 kts | 68° |
| 2026-05-04 14:53 | 52.43030 | 20.00405 | 18891 ft | 392 kts | 68° |
| 2026-05-04 14:53 | 52.44046 | 20.04554 | 18875 ft | 390 kts | 68° |
| 2026-05-04 14:53 | 52.45045 | 20.08646 | 18380 ft | 391 kts | 68° |
| 2026-05-04 14:54 | 52.46051 | 20.12764 | 17794 ft | 389 kts | 68° |
| 2026-05-04 14:54 | 52.47055 | 20.16896 | 17269 ft | 387 kts | 68° |
| 2026-05-04 14:54 | 52.48041 | 20.20970 | 16763 ft | 383 kts | 68° |
| 2026-05-04 14:54 | 52.48999 | 20.24944 | 16520 ft | 371 kts | 68° |